Andrews AFB, Maryland
Current Conditions -  °F | °C
As of 5:58 AM on Saturday 25 Oct 2014 (Local Time) from KADW Reporting Station
Clear Clear  
Wind Chill:   Ceiling: Unl
Heat Index:   Visibility: 10mi
Dew Point:   Wind: 2mph
Humidity: 87%   Direction: 190°S
Pressure: 29.95"   Gusts: NA
Location:  38.8°N, 76.87°W
Report Text: KADW 250958Z AUTO 19002KT 10SM CLR 05/03 A2995 RMK AO2 SLP149 T00530033 $
Loading
Personal Weather Stations






























Interactive Weather Map
Tropical Storm Tracking
New forecast layout! Learn more

10-Day Weather Forecast

Advertisements
Track Severe Weather on mobile